createdAt,value
2022-08-16T00:02:01.693Z,96341.00
2022-08-16T00:04:40.240Z,96337.00
2022-08-16T00:07:07.363Z,96343.00
2022-08-16T00:09:35.829Z,96347.00
2022-08-16T00:12:03.518Z,96340.00
2022-08-16T00:14:33.361Z,96338.00
2022-08-16T00:17:15.957Z,96348.00
2022-08-16T00:19:46.157Z,96344.00
2022-08-16T00:22:15.408Z,96346.00
2022-08-16T00:24:46.744Z,96346.00
2022-08-16T00:27:14.467Z,96344.00
2022-08-16T00:29:41.847Z,96350.00
2022-08-16T00:32:11.001Z,96353.00
2022-08-16T00:34:43.151Z,96356.00
2022-08-16T00:37:21.029Z,96347.00
2022-08-16T00:39:57.123Z,96343.00
2022-08-16T00:42:30.096Z,96342.00
2022-08-16T00:45:06.391Z,96339.00
2022-08-16T00:47:36.205Z,96339.00
2022-08-16T00:50:04.821Z,96337.00
2022-08-16T00:52:39.118Z,96339.00
2022-08-16T00:55:18.570Z,96344.00
2022-08-16T00:58:00.227Z,96338.00
2022-08-16T01:00:29.547Z,96329.00
2022-08-16T01:03:04.415Z,96329.00
2022-08-16T01:05:46.404Z,96335.00
2022-08-16T01:08:45.475Z,96332.00
2022-08-16T01:11:14.001Z,96333.00
2022-08-16T01:13:42.375Z,96332.00
2022-08-16T01:16:20.789Z,96328.00
2022-08-16T01:18:50.167Z,96328.00
2022-08-16T01:21:22.309Z,96328.00
2022-08-16T01:23:58.490Z,96326.00
2022-08-16T01:26:34.826Z,96336.00
2022-08-16T01:29:04.624Z,96335.00
2022-08-16T01:31:31.740Z,96332.00
2022-08-16T01:34:04.690Z,96335.00
2022-08-16T01:36:34.505Z,96343.00
2022-08-16T01:39:07.758Z,96349.00
2022-08-16T01:41:42.104Z,96336.00
2022-08-16T01:44:11.390Z,96340.00
2022-08-16T01:46:46.683Z,96338.00
2022-08-16T01:49:15.549Z,96333.00
2022-08-16T01:51:43.698Z,96335.00
2022-08-16T01:54:13.268Z,96340.00
2022-08-16T01:56:42.558Z,96336.00
2022-08-16T01:59:15.649Z,96339.00
2022-08-16T02:05:11.926Z,96333.00
2022-08-16T02:08:10.531Z,96330.00
2022-08-16T02:11:06.129Z,96335.00
2022-08-16T02:13:35.037Z,96329.00
2022-08-16T02:16:02.592Z,96335.00
2022-08-16T02:18:29.869Z,96339.00
2022-08-16T02:20:56.975Z,96336.00
2022-08-16T02:23:24.547Z,96330.00
2022-08-16T02:25:54.005Z,96337.00
2022-08-16T02:28:23.350Z,96330.00
2022-08-16T02:30:51.865Z,96324.00
2022-08-16T02:33:43.432Z,96325.00
2022-08-16T02:36:47.322Z,96316.00
2022-08-16T02:39:25.409Z,96323.00
2022-08-16T02:41:57.214Z,96312.00
2022-08-16T02:44:57.926Z,96316.00
2022-08-16T02:48:00.373Z,96321.00
2022-08-16T02:50:54.492Z,96323.00
2022-08-16T02:53:31.447Z,96315.00
2022-08-16T02:55:59.166Z,96317.00
2022-08-16T02:58:27.695Z,96319.00
2022-08-16T03:00:57.518Z,96309.00
2022-08-16T03:03:25.949Z,96316.00
2022-08-16T03:05:53.456Z,96313.00
2022-08-16T03:08:50.486Z,96317.00
2022-08-16T03:11:16.931Z,96308.00
2022-08-16T03:14:02.241Z,96300.00
2022-08-16T03:16:59.392Z,96302.00
2022-08-16T03:19:46.967Z,96304.00
2022-08-16T03:22:56.936Z,96298.00
2022-08-16T03:25:24.052Z,96295.00
2022-08-16T03:27:51.275Z,96302.00
2022-08-16T03:30:21.307Z,96291.00
2022-08-16T03:32:51.602Z,96298.00
2022-08-16T03:35:20.281Z,96300.00
2022-08-16T03:38:01.614Z,96288.00
2022-08-16T03:40:33.325Z,96285.00
2022-08-16T03:43:20.012Z,96288.00
2022-08-16T03:45:48.391Z,96292.00
2022-08-16T03:48:18.233Z,96291.00
2022-08-16T03:51:00.220Z,96293.00
2022-08-16T03:53:37.749Z,96288.00
2022-08-16T03:56:07.479Z,96292.00
2022-08-16T03:58:35.451Z,96284.00
2022-08-16T04:01:04.485Z,96283.00
2022-08-16T04:03:32.098Z,96286.00
2022-08-16T04:06:00.197Z,96293.00
2022-08-16T04:08:31.179Z,96287.00
2022-08-16T04:10:58.379Z,96276.00
2022-08-16T04:14:00.655Z,96276.00
2022-08-16T04:16:27.802Z,96276.00
2022-08-16T04:19:02.555Z,96276.00
2022-08-16T04:21:32.229Z,96284.00
2022-08-16T04:23:59.727Z,96277.00
2022-08-16T04:26:30.935Z,96276.00
2022-08-16T04:29:16.961Z,96279.00
2022-08-16T04:31:46.903Z,96282.00
2022-08-16T04:34:26.586Z,96284.00
2022-08-16T04:36:54.215Z,96280.00
2022-08-16T04:39:24.003Z,96285.00
2022-08-16T04:41:56.994Z,96293.00
2022-08-16T04:44:52.566Z,96294.00
2022-08-16T04:47:21.163Z,96296.00
2022-08-16T04:49:52.617Z,96291.00
2022-08-16T04:52:33.382Z,96295.00
2022-08-16T04:55:19.705Z,96305.00
2022-08-16T04:57:53.467Z,96305.00
2022-08-16T05:00:31.733Z,96300.00
2022-08-16T05:03:06.973Z,96299.00
2022-08-16T05:05:44.894Z,96300.00
2022-08-16T05:08:29.700Z,96307.00
2022-08-16T05:11:03.692Z,96297.00
2022-08-16T05:13:35.153Z,96295.00
2022-08-16T05:16:11.726Z,96303.00
2022-08-16T05:18:43.584Z,96301.00
2022-08-16T05:21:12.466Z,96301.00
2022-08-16T05:23:39.789Z,96304.00
2022-08-16T05:26:19.556Z,96313.00
2022-08-16T05:28:47.955Z,96306.00
2022-08-16T05:31:24.228Z,96307.00
2022-08-16T05:34:00.749Z,96313.00
2022-08-16T05:36:33.961Z,96314.00
2022-08-16T05:39:05.197Z,96318.00
2022-08-16T05:41:32.975Z,96319.00
2022-08-16T05:44:23.063Z,96319.00
2022-08-16T05:46:52.517Z,96322.00
2022-08-16T05:49:22.270Z,96324.00
2022-08-16T05:51:50.292Z,96324.00
2022-08-16T05:54:20.300Z,96328.00
2022-08-16T05:56:52.754Z,96322.00
2022-08-16T05:59:19.993Z,96323.00
2022-08-16T06:01:52.398Z,96320.00
2022-08-16T06:04:35.656Z,96323.00
2022-08-16T06:07:07.301Z,96328.00
2022-08-16T06:09:43.681Z,96325.00
2022-08-16T06:12:12.557Z,96330.00
2022-08-16T06:14:40.204Z,96325.00
2022-08-16T06:17:07.655Z,96337.00
2022-08-16T06:19:35.654Z,96327.00
2022-08-16T06:22:03.002Z,96328.00
2022-08-16T06:24:54.097Z,96338.00
2022-08-16T06:27:17.235Z,96325.00
2022-08-16T06:29:44.655Z,96337.00
2022-08-16T06:32:27.111Z,96337.00
2022-08-16T06:35:02.439Z,96344.00
2022-08-16T06:37:37.398Z,96344.00
2022-08-16T06:40:05.281Z,96356.00
2022-08-16T06:42:47.765Z,96345.00
2022-08-16T06:45:15.564Z,96346.00
2022-08-16T06:47:53.104Z,96344.00
2022-08-16T06:50:28.544Z,96347.00
2022-08-16T06:53:00.719Z,96349.00
2022-08-16T06:55:44.630Z,96340.00
2022-08-16T06:58:22.322Z,96339.00
2022-08-16T07:00:50.239Z,96348.00
2022-08-16T07:03:27.438Z,96342.00
2022-08-16T07:05:56.895Z,96344.00
2022-08-16T07:08:24.370Z,96341.00
2022-08-16T07:10:54.516Z,96342.00
2022-08-16T07:14:03.683Z,96351.00
2022-08-16T07:16:14.481Z,96352.00
2022-08-16T07:19:01.425Z,96353.00
2022-08-16T07:21:46.271Z,96358.00
2022-08-16T07:24:29.481Z,96358.00
2022-08-16T07:26:58.958Z,96349.00
2022-08-16T07:29:28.127Z,96344.00
2022-08-16T07:31:59.499Z,96338.00
2022-08-16T07:34:35.236Z,96338.00
2022-08-16T07:37:05.870Z,96335.00
2022-08-16T07:39:34.085Z,96333.00
2022-08-16T07:42:01.395Z,96330.00
2022-08-16T07:44:47.596Z,96335.00
2022-08-16T07:47:16.209Z,96330.00
2022-08-16T07:49:53.299Z,96339.00
2022-08-16T07:52:29.841Z,96337.00
2022-08-16T07:54:57.642Z,96341.00
2022-08-16T07:57:24.985Z,96329.00
2022-08-16T08:00:08.014Z,96327.00
2022-08-16T08:02:47.434Z,96335.00
2022-08-16T08:05:25.446Z,96340.00
2022-08-16T08:08:51.266Z,96343.00
2022-08-16T08:11:09.297Z,96340.00
2022-08-16T08:13:42.458Z,96339.00
2022-08-16T08:16:19.080Z,96339.00
2022-08-16T08:18:49.817Z,96354.00
2022-08-16T08:21:19.353Z,96352.00
2022-08-16T08:23:53.636Z,96351.00
2022-08-16T08:26:22.111Z,96346.00
2022-08-16T08:29:09.473Z,96347.00
2022-08-16T08:31:54.631Z,96355.00
2022-08-16T08:37:56.591Z,96374.00
2022-08-16T08:40:57.066Z,96372.00
2022-08-16T08:43:56.490Z,96375.00
2022-08-16T08:46:59.993Z,96382.00
2022-08-16T08:49:58.183Z,96382.00
2022-08-16T08:52:40.810Z,96376.00
2022-08-16T08:55:42.991Z,96379.00
2022-08-16T08:58:10.327Z,96381.00
2022-08-16T09:00:51.418Z,96383.00
2022-08-16T09:03:18.791Z,96383.00
2022-08-16T09:05:51.281Z,96383.00
2022-08-16T09:08:18.694Z,96381.00
2022-08-16T09:10:56.772Z,96387.00
2022-08-16T09:13:29.077Z,96389.00
2022-08-16T09:16:00.073Z,96390.00
2022-08-16T09:18:35.301Z,96395.00
2022-08-16T09:21:04.124Z,96388.00
2022-08-16T09:23:36.721Z,96392.00
2022-08-16T09:26:44.272Z,96398.00
2022-08-16T09:29:15.722Z,96396.00
2022-08-16T09:31:43.055Z,96397.00
2022-08-16T09:34:10.508Z,96397.00
2022-08-16T09:36:46.155Z,96397.00
2022-08-16T09:39:16.341Z,96398.00
2022-08-16T09:41:53.319Z,96401.00
2022-08-16T09:45:10.644Z,96399.00
2022-08-16T09:47:10.207Z,96406.00
2022-08-16T09:49:41.070Z,96389.00
2022-08-16T09:52:09.447Z,96394.00
2022-08-16T09:54:37.487Z,96393.00
2022-08-16T09:57:04.655Z,96396.00
2022-08-16T09:59:38.636Z,96394.00
2022-08-16T10:02:26.290Z,96407.00
2022-08-16T10:04:55.788Z,96403.00
2022-08-16T10:07:24.181Z,96408.00
2022-08-16T10:09:55.715Z,96403.00
2022-08-16T10:12:45.886Z,96393.00
2022-08-16T10:15:15.684Z,96403.00
2022-08-16T10:17:45.453Z,96399.00
2022-08-16T10:20:27.771Z,96397.00
2022-08-16T10:23:03.545Z,96395.00
2022-08-16T10:27:20.521Z,96398.00
2022-08-16T10:28:29.109Z,96393.00
2022-08-16T10:30:59.175Z,96407.00
2022-08-16T10:33:29.801Z,96392.00
2022-08-16T10:36:03.704Z,96400.00
2022-08-16T10:38:33.062Z,96391.00
2022-08-16T10:41:00.943Z,96393.00
2022-08-16T10:43:31.022Z,96393.00
2022-08-16T10:46:00.813Z,96389.00
2022-08-16T10:48:28.898Z,96391.00
2022-08-16T10:50:59.767Z,96391.00
2022-08-16T10:53:33.019Z,96389.00
2022-08-16T10:56:01.862Z,96382.00
2022-08-16T10:58:34.345Z,96378.00
2022-08-16T11:01:25.044Z,96381.00
2022-08-16T11:03:54.546Z,96375.00
2022-08-16T11:06:27.891Z,96387.00
2022-08-16T11:14:30.360Z,96387.00
2022-08-16T11:17:02.972Z,96388.00
2022-08-16T11:20:00.724Z,96383.00
2022-08-16T11:22:47.690Z,96378.00
2022-08-16T11:25:12.558Z,96391.00
2022-08-16T11:27:42.456Z,96385.00
2022-08-16T11:30:12.461Z,96384.00
2022-08-16T11:32:47.444Z,96382.00
2022-08-16T11:35:17.241Z,96381.00
2022-08-16T11:40:44.353Z,96389.00
2022-08-16T11:43:13.051Z,96377.00
2022-08-16T11:45:43.979Z,96390.00
2022-08-16T11:48:27.320Z,96397.00
2022-08-16T11:50:54.866Z,96385.00
2022-08-16T11:53:27.223Z,96388.00
2022-08-16T11:55:56.227Z,96390.00
2022-08-16T11:58:36.420Z,96386.00
2022-08-16T12:10:00.145Z,96374.00
2022-08-16T12:12:28.658Z,96368.00
2022-08-16T12:14:59.768Z,96367.00
2022-08-16T12:17:31.574Z,96365.00
2022-08-16T12:20:28.045Z,96370.00
2022-08-16T12:22:59.634Z,96381.00
2022-08-16T12:25:49.104Z,96375.00
2022-08-16T12:28:36.778Z,96376.00
2022-08-16T12:31:05.646Z,96370.00
2022-08-16T12:33:33.024Z,96371.00
2022-08-16T12:36:13.167Z,96364.00
2022-08-16T12:38:48.350Z,96363.00
2022-08-16T12:41:24.676Z,96356.00
2022-08-16T12:43:52.687Z,96364.00
2022-08-16T12:46:24.828Z,96358.00
2022-08-16T12:49:11.299Z,96360.00
2022-08-16T12:51:58.420Z,96356.00
2022-08-16T12:54:27.192Z,96361.00
2022-08-16T12:56:59.482Z,96357.00
2022-08-16T12:59:30.997Z,96363.00
2022-08-16T13:02:00.642Z,96352.00
2022-08-16T13:04:33.176Z,96352.00
2022-08-16T13:07:00.745Z,96356.00
2022-08-16T13:09:30.098Z,96344.00
2022-08-16T13:12:03.706Z,96344.00
2022-08-16T13:14:35.185Z,96354.00
2022-08-16T13:17:03.041Z,96358.00
2022-08-16T13:20:03.451Z,96355.00
2022-08-16T13:22:19.977Z,96353.00
2022-08-16T13:24:47.134Z,96352.00
2022-08-16T13:27:14.227Z,96353.00
2022-08-16T13:29:44.017Z,96349.00
2022-08-16T13:32:40.402Z,96348.00
2022-08-16T13:34:58.538Z,96350.00
2022-08-16T13:37:28.272Z,96349.00
2022-08-16T13:39:55.644Z,96349.00
2022-08-16T13:42:22.867Z,96340.00
2022-08-16T13:44:56.321Z,96343.00
2022-08-16T13:47:25.507Z,96343.00
2022-08-16T13:49:57.628Z,96338.00
2022-08-16T13:52:25.134Z,96342.00
2022-08-16T13:55:01.194Z,96339.00
2022-08-16T13:58:35.695Z,96345.00
2022-08-16T14:00:19.575Z,96340.00
2022-08-16T14:02:48.464Z,96341.00
2022-08-16T14:05:16.203Z,96344.00
2022-08-16T14:07:49.170Z,96341.00
2022-08-16T14:10:20.027Z,96345.00
2022-08-16T14:12:48.399Z,96338.00
2022-08-16T14:15:16.006Z,96335.00
2022-08-16T14:18:15.719Z,96325.00
2022-08-16T14:20:30.359Z,96332.00
2022-08-16T14:22:58.064Z,96329.00
2022-08-16T14:25:25.597Z,96326.00
2022-08-16T14:27:54.602Z,96322.00
2022-08-16T14:30:22.219Z,96318.00
2022-08-16T14:32:51.074Z,96319.00
2022-08-16T14:35:20.736Z,96322.00
2022-08-16T14:37:52.665Z,96330.00
2022-08-16T14:40:24.012Z,96325.00
2022-08-16T14:42:56.737Z,96323.00
2022-08-16T14:45:25.383Z,96328.00
2022-08-16T14:47:54.587Z,96328.00
2022-08-16T14:50:23.151Z,96320.00
2022-08-16T14:52:56.683Z,96308.00
2022-08-16T14:55:25.924Z,96311.00
2022-08-16T14:57:54.244Z,96305.00
2022-08-16T15:00:21.904Z,96306.00
2022-08-16T15:03:01.717Z,96306.00
2022-08-16T15:08:01.577Z,96306.00
2022-08-16T15:10:29.363Z,96300.00
2022-08-16T15:13:00.784Z,96300.00
2022-08-16T15:15:29.053Z,96306.00
2022-08-16T15:17:57.358Z,96304.00
2022-08-16T15:20:26.212Z,96297.00
2022-08-16T15:22:53.690Z,96296.00
2022-08-16T15:25:23.355Z,96303.00
2022-08-16T15:27:56.956Z,96303.00
2022-08-16T15:30:58.510Z,96310.00
2022-08-16T15:33:14.988Z,96310.00
2022-08-16T15:35:43.034Z,96306.00
2022-08-16T15:38:10.244Z,96297.00
2022-08-16T15:40:58.791Z,96298.00
2022-08-16T15:43:27.292Z,96297.00
2022-08-16T15:46:35.183Z,96298.00
2022-08-16T15:49:09.711Z,96298.00
2022-08-16T15:51:39.363Z,96295.00
2022-08-16T15:54:29.347Z,96297.00
2022-08-16T15:56:55.316Z,96290.00
2022-08-16T15:59:24.532Z,96287.00
2022-08-16T16:01:55.774Z,96289.00
2022-08-16T16:04:25.655Z,96285.00
2022-08-16T16:06:57.534Z,96287.00
2022-08-16T16:09:36.982Z,96291.00
2022-08-16T16:12:16.346Z,96294.00
2022-08-16T16:14:52.658Z,96290.00
2022-08-16T16:17:19.827Z,96283.00
2022-08-16T16:19:49.768Z,96295.00
2022-08-16T16:22:21.135Z,96286.00
2022-08-16T16:24:49.168Z,96287.00
2022-08-16T16:27:17.137Z,96286.00
2022-08-16T16:29:46.373Z,96292.00
2022-08-16T16:32:34.168Z,96302.00
2022-08-16T16:35:02.544Z,96301.00
2022-08-16T16:37:31.129Z,96303.00
2022-08-16T16:39:59.083Z,96302.00
2022-08-16T16:42:30.118Z,96297.00
2022-08-16T16:45:01.191Z,96298.00
2022-08-16T16:47:41.475Z,96297.00
2022-08-16T16:50:09.479Z,96297.00
2022-08-16T16:52:44.373Z,96295.00
2022-08-16T16:55:14.820Z,96293.00
2022-08-16T16:58:00.847Z,96293.00
2022-08-16T17:00:38.607Z,96289.00
2022-08-16T17:03:17.114Z,96284.00
2022-08-16T17:05:57.265Z,96280.00
2022-08-16T17:08:27.457Z,96284.00
2022-08-16T17:10:56.055Z,96276.00
2022-08-16T17:13:24.650Z,96273.00
2022-08-16T17:15:52.521Z,96282.00
2022-08-16T17:19:01.927Z,96280.00
2022-08-16T17:21:08.588Z,96276.00
2022-08-16T17:23:58.319Z,96274.00
2022-08-16T17:26:29.889Z,96272.00
2022-08-16T17:29:02.261Z,96275.00
2022-08-16T17:31:43.239Z,96274.00
2022-08-16T17:34:30.428Z,96275.00
2022-08-16T17:36:59.561Z,96273.00
2022-08-16T17:39:29.522Z,96274.00
2022-08-16T17:42:00.835Z,96278.00
2022-08-16T17:44:28.671Z,96282.00
2022-08-16T17:46:55.871Z,96279.00
2022-08-16T17:49:22.998Z,96283.00
2022-08-16T17:51:50.167Z,96278.00
2022-08-16T17:54:30.028Z,96280.00
2022-08-16T17:56:58.700Z,96276.00
2022-08-16T17:59:28.690Z,96277.00
2022-08-16T18:01:56.338Z,96266.00
2022-08-16T18:04:48.217Z,96271.00
2022-08-16T18:07:11.160Z,96266.00
2022-08-16T18:09:40.876Z,96269.00
2022-08-16T18:12:41.585Z,96262.00
2022-08-16T18:15:02.298Z,96261.00
2022-08-16T18:17:29.400Z,96269.00
2022-08-16T18:19:56.605Z,96269.00
2022-08-16T18:22:30.171Z,96263.00
2022-08-16T18:24:58.040Z,96271.00
2022-08-16T18:27:27.278Z,96269.00
2022-08-16T18:29:54.683Z,96268.00
2022-08-16T18:32:24.593Z,96266.00
2022-08-16T18:34:55.303Z,96269.00
2022-08-16T18:37:23.300Z,96273.00
2022-08-16T18:39:50.555Z,96273.00
2022-08-16T18:42:17.761Z,96278.00
2022-08-16T18:44:44.914Z,96282.00
2022-08-16T18:47:12.026Z,96275.00
2022-08-16T18:49:39.155Z,96269.00
2022-08-16T18:52:06.452Z,96280.00
2022-08-16T18:54:34.115Z,96281.00
2022-08-16T18:57:21.277Z,96278.00
2022-08-16T18:59:48.398Z,96281.00
2022-08-16T19:02:56.127Z,96284.00
2022-08-16T19:05:13.228Z,96285.00
2022-08-16T19:07:41.016Z,96277.00
2022-08-16T19:10:18.568Z,96271.00
2022-08-16T19:12:50.253Z,96277.00
2022-08-16T19:15:30.050Z,96280.00
2022-08-16T19:18:01.427Z,96293.00
2022-08-16T19:20:59.211Z,96290.00
2022-08-16T19:23:42.975Z,96289.00
2022-08-16T19:26:23.477Z,96298.00
2022-08-16T19:29:09.098Z,96294.00
2022-08-16T19:31:57.467Z,96299.00
2022-08-16T19:37:22.057Z,96299.00
2022-08-16T19:39:54.310Z,96300.00
2022-08-16T19:42:22.342Z,96311.00
2022-08-16T19:44:50.247Z,96308.00
2022-08-16T19:47:17.410Z,96323.00
2022-08-16T19:49:44.676Z,96326.00
2022-08-16T19:52:31.632Z,96324.00
2022-08-16T19:55:00.166Z,96327.00
2022-08-16T19:57:27.375Z,96323.00
2022-08-16T19:59:54.491Z,96319.00
2022-08-16T20:02:36.002Z,96322.00
2022-08-16T20:05:04.249Z,96316.00
2022-08-16T20:07:32.268Z,96326.00
2022-08-16T20:09:59.384Z,96322.00
2022-08-16T20:12:27.067Z,96319.00
2022-08-16T20:14:54.243Z,96318.00
2022-08-16T20:17:21.349Z,96324.00
2022-08-16T20:19:48.477Z,96329.00
2022-08-16T20:22:49.895Z,96320.00
2022-08-16T20:25:13.892Z,96330.00
2022-08-16T20:27:45.840Z,96327.00
2022-08-16T20:30:14.645Z,96321.00
2022-08-16T20:32:42.511Z,96332.00
2022-08-16T20:35:11.608Z,96326.00
2022-08-16T20:37:39.575Z,96320.00
2022-08-16T20:40:28.022Z,96322.00
2022-08-16T20:42:58.529Z,96325.00
2022-08-16T20:45:27.496Z,96334.00
2022-08-16T20:47:55.113Z,96324.00
2022-08-16T20:50:22.775Z,96329.00
2022-08-16T20:52:53.200Z,96333.00
2022-08-16T20:55:21.587Z,96335.00
2022-08-16T20:57:49.181Z,96327.00
2022-08-16T21:00:18.891Z,96326.00
2022-08-16T21:02:46.410Z,96333.00
2022-08-16T21:05:17.144Z,96328.00
2022-08-16T21:07:50.684Z,96333.00
2022-08-16T21:10:23.018Z,96342.00
2022-08-16T21:12:51.842Z,96340.00
2022-08-16T21:15:21.760Z,96339.00
2022-08-16T21:17:49.179Z,96339.00
2022-08-16T21:20:16.637Z,96328.00
2022-08-16T21:22:51.302Z,96330.00
2022-08-16T21:25:23.337Z,96332.00
2022-08-16T21:28:39.044Z,96333.00
2022-08-16T21:30:40.977Z,96334.00
2022-08-16T21:33:12.946Z,96333.00
2022-08-16T21:35:41.217Z,96338.00
2022-08-16T21:38:28.146Z,96328.00
2022-08-16T21:40:57.360Z,96321.00
2022-08-16T21:43:25.477Z,96326.00
2022-08-16T21:45:55.365Z,96325.00
2022-08-16T21:48:34.896Z,96324.00
2022-08-16T21:51:08.654Z,96312.00
2022-08-16T21:53:35.931Z,96311.00
2022-08-16T21:56:03.971Z,96316.00
2022-08-16T21:58:31.234Z,96309.00
2022-08-16T22:00:58.356Z,96312.00
2022-08-16T22:03:25.453Z,96318.00
2022-08-16T22:06:11.586Z,96318.00
2022-08-16T22:08:50.112Z,96318.00
2022-08-16T22:11:19.318Z,96320.00
2022-08-16T22:13:57.418Z,96318.00
2022-08-16T22:16:30.185Z,96318.00
2022-08-16T22:18:57.368Z,96321.00
2022-08-16T22:21:24.613Z,96323.00
2022-08-16T22:23:56.498Z,96324.00
2022-08-16T22:26:30.642Z,96322.00
2022-08-16T22:29:04.366Z,96319.00
2022-08-16T22:31:31.504Z,96328.00
2022-08-16T22:33:59.040Z,96329.00
2022-08-16T22:36:28.294Z,96328.00
2022-08-16T22:38:59.509Z,96324.00
2022-08-16T22:41:27.198Z,96323.00
2022-08-16T22:43:54.309Z,96319.00
2022-08-16T22:46:21.422Z,96313.00
2022-08-16T22:48:51.595Z,96312.00
2022-08-16T22:51:19.698Z,96314.00
2022-08-16T22:53:46.871Z,96314.00
2022-08-16T22:56:15.555Z,96306.00
2022-08-16T22:58:43.373Z,96307.00
2022-08-16T23:01:10.667Z,96308.00
2022-08-16T23:03:37.932Z,96306.00
2022-08-16T23:06:05.304Z,96305.00
2022-08-16T23:08:39.377Z,96298.00
2022-08-16T23:11:15.053Z,96298.00
2022-08-16T23:13:49.698Z,96291.00
2022-08-16T23:16:22.414Z,96293.00
2022-08-16T23:18:49.601Z,96292.00
2022-08-16T23:21:17.973Z,96288.00
2022-08-16T23:23:46.488Z,96287.00
2022-08-16T23:26:46.782Z,96291.00
2022-08-16T23:29:04.390Z,96289.00
2022-08-16T23:31:32.470Z,96283.00
2022-08-16T23:33:59.859Z,96280.00
2022-08-16T23:36:26.985Z,96276.00
2022-08-16T23:38:54.167Z,96287.00
2022-08-16T23:41:21.412Z,96286.00
2022-08-16T23:43:48.542Z,96281.00
2022-08-16T23:46:16.948Z,96289.00
2022-08-16T23:49:45.076Z,96294.00
2022-08-16T23:51:31.962Z,96294.00
2022-08-16T23:53:59.917Z,96285.00
2022-08-16T23:56:27.031Z,96286.00
2022-08-16T23:59:02.232Z,96288.00
